Have a Safe July 4th! 

Flight Track Log - Related Links

Times and Time Zones

All times are in EDT time to prevent confusion due to time zone crossing. See the N100JD flight status page for this flight to view local times or setup timezone preferences in your user account.

Time Position Orientation Groundspeed Altitude Reporting Facility
EDT Latitude Longitude Course Direction KTS MPH feet Rate Location/Type
Tue 09:56:15 AM 44.4546 -108.9701 141° Southeast  Level FlightAware Approximate
Tue 09:57:18 AM 44.3339 -108.8331 156° South 168 193 14,400  Level Salt Lake Center
Tue 09:58:19 AM 44.2928 -108.8069 154° Southeast 168 193 15,400 1,024 Climbing Salt Lake Center
Tue 09:59:21 AM 44.2497 -108.7778 146° Southeast 177 204 16,500 1,122 Climbing Salt Lake Center
Tue 10:00:22 AM 44.2025 -108.7333 145° Southeast 182 209 17,700 1,171 Climbing Salt Lake Center
Tue 10:01:24 AM 44.1625 -108.6942 148° Southeast 184 212 18,900 1,024 Climbing Salt Lake Center
Tue 10:02:25 AM 44.1133 -108.6508 146° Southeast 185 213 19,800 878 Climbing Salt Lake Center
Tue 10:03:27 AM 44.0733 -108.6136 145° Southeast 184 212 20,700 585 Climbing Salt Lake Center
Tue 10:04:28 AM 44.0342 -108.5750 147° Southeast 182 209 21,000 146 Climbing Salt Lake Center
Tue 10:05:30 AM 43.9753 -108.5228 146° Southeast 214 246 21,000  Level Salt Lake Center
Tue 10:06:31 AM 43.9225 -108.4733 147° Southeast 241 277 21,000  Level Salt Lake Center
Tue 10:07:33 AM 43.8603 -108.4169 148° Southeast 240 276 21,000  Level Salt Lake Center
Tue 10:08:34 AM 43.8042 -108.3681 147° Southeast 245 282 21,000  Level Salt Lake Center
Tue 10:09:36 AM 43.7397 -108.3100 147° Southeast 247 284 21,000  Level Salt Lake Center
Tue 10:10:37 AM 43.6861 -108.2611 146° Southeast 243 280 21,000  Level Salt Lake Center
Tue 10:11:39 AM 43.6336 -108.2125 147° Southeast 240 276 21,000  Level Salt Lake Center
Tue 10:12:41 AM 43.5703 -108.1567 147° Southeast 241 277 21,000  Level Salt Lake Center
Tue 10:13:42 AM 43.5167 -108.1083 147° Southeast 242 278 21,000  Level Salt Lake Center
Tue 10:14:44 AM 43.4525 -108.0500 148° Southeast 246 283 21,000  Level Salt Lake Center
Tue 10:15:45 AM 43.3958 -108.0006 146° Southeast 251 289 21,000  Level Salt Lake Center
Tue 10:16:47 AM 43.3306 -107.9408 147° Southeast 252 290 21,000  Level Salt Lake Center
Tue 10:17:49 AM 43.2761 -107.8931 147° Southeast 246 283 21,000  Level Salt Lake Center
Tue 10:18:50 AM 43.2233 -107.8458 147° Southeast 240 276 21,000  Level Salt Lake Center
Tue 10:19:52 AM 43.1611 -107.7914 147° Southeast 238 274 21,000  Level Salt Lake Center
Tue 10:20:53 AM 43.1081 -107.7447 146° Southeast 238 274 21,000  Level Salt Lake Center
Tue 10:21:55 AM 43.0469 -107.6892 148° Southeast 237 273 21,000  Level Salt Lake Center
Tue 10:22:57 AM 42.9942 -107.6436 147° Southeast 236 272 21,000  Level Salt Lake Center
Tue 10:23:58 AM 42.9356 -107.5919 148° Southeast 232 267 21,000  Level Salt Lake Center
Tue 10:25:00 AM 42.8853 -107.5483 148° Southeast 227 261 21,000  Level Salt Lake Center
Tue 10:26:02 AM 42.8283 -107.4989 147° Southeast 221 254 21,000  Level Salt Lake Center
Tue 10:27:03 AM 42.7806 -107.4572 147° Southeast 216 249 21,000  Level Salt Lake Center
Tue 10:28:05 AM 42.7328 -107.4153 148° Southeast 215 247 21,000  Level Salt Lake Center
Tue 10:29:07 AM 42.6767 -107.3667 147° Southeast 214 246 21,000  Level Salt Lake Center
Tue 10:30:08 AM 42.6283 -107.3247 147° Southeast 215 247 21,000  Level Salt Lake Center
Tue 10:31:10 AM 42.5714 -107.2753 148° Southeast 217 250 21,000  Level Salt Lake Center
Tue 10:32:12 AM 42.5228 -107.2333 148° Southeast 217 250 21,000  Level Salt Lake Center
Tue 10:33:13 AM 42.4669 -107.1858 147° Southeast 214 246 21,000  Level Salt Lake Center
Tue 10:34:15 AM 42.4178 -107.1433 148° Southeast 217 250 21,000  Level Salt Lake Center
Tue 10:35:17 AM 42.3681 -107.1006 148° Southeast 220 253 21,000  Level Salt Lake Center
Tue 10:36:19 AM 42.3092 -107.0500 147° Southeast 223 257 21,000  Level Salt Lake Center
Tue 10:37:20 AM 42.2581 -107.0050 148° Southeast 226 260 21,000  Level Salt Lake Center
Tue 10:38:22 AM 42.1986 -106.9544 148° Southeast 226 260 21,000  Level Salt Lake Center
Tue 10:39:24 AM 42.1461 -106.9100 147° Southeast 230 265 21,000  Level Salt Lake Center
Tue 10:40:26 AM 42.0822 -106.8544 149° Southeast 239 275 21,000  Level Salt Lake Center
Tue 10:41:27 AM 42.0289 -106.8114 147° Southeast 237 273 21,000  Level Salt Lake Center
Tue 10:42:29 AM 41.9781 -106.7675 148° Southeast 231 266 21,000  Level Salt Lake Center
Tue 10:43:31 AM 41.9169 -106.7169 148° Southeast 231 266 21,000  Level Salt Lake Center
Tue 10:44:33 AM 41.8647 -106.6728 149° Southeast 231 266 21,000  Level Salt Lake Center
Tue 10:45:42 AM 41.7931 -106.6156 150° Southeast 215 247 21,000  Level Denver Center
Tue 10:46:42 AM 41.7389 -106.5736 147° Southeast 230 265 21,000  Level Denver Center
Tue 10:47:42 AM 41.6908 -106.5319 146° Southeast 224 258 21,000  Level Denver Center
Tue 10:48:42 AM 41.6472 -106.4931 147° Southeast 210 242 21,000  Level Denver Center
Tue 10:49:42 AM 41.5889 -106.4431 148° Southeast 210 242 21,000  Level Denver Center
Tue 10:50:42 AM 41.5347 -106.3986 148° Southeast 221 254 21,000  Level Denver Center
Tue 10:51:42 AM 41.4783 -106.3514 150° Southeast 232 267 21,000  Level Denver Center
Tue 10:52:42 AM 41.4325 -106.3156 149° Southeast 232 267 21,000  Level Denver Center
Tue 10:53:42 AM 41.3739 -106.2686 146° Southeast 232 267 21,000  Level Denver Center
Tue 10:54:42 AM 41.3217 -106.2219 153° Southeast 227 261 21,000  Level Denver Center
Tue 10:55:42 AM 41.2694 -106.1861 145° Southeast 235 270 21,000  Level Denver Center
Tue 10:56:42 AM 41.2256 -106.1450 147° Southeast 224 258 21,000  Level Denver Center
Tue 10:57:42 AM 41.1672 -106.0956 147° Southeast 217 250 21,000  Level Denver Center
Tue 10:58:42 AM 41.1128 -106.0489 150° Southeast 230 265 21,000  Level Denver Center
Tue 10:59:42 AM 41.0625 -106.0108 148° Southeast 230 265 21,000  Level Denver Center
Tue 11:00:42 AM 41.0019 -105.9617 150° Southeast 230 265 21,000  Level Denver Center
Tue 11:01:42 AM 40.9456 -105.9181 149° Southeast 236 272 21,000  Level Denver Center
Tue 11:02:42 AM 40.8972 -105.8800 150° Southeast 231 266 21,000  Level Denver Center
Tue 11:03:42 AM 40.8514 -105.8447 147° Southeast 220 253 21,000  Level Denver Center
Tue 11:04:42 AM 40.8031 -105.8039 147° Southeast 200 230 21,000 -250 Level Denver Center
Tue 11:05:42 AM 40.7592 -105.7661 149° Southeast 195 224 20,500 -600 Descending Denver Center
Tue 11:06:42 AM 40.7089 -105.7256 151° Southeast 200 230 19,800 -650 Descending Denver Center
Tue 11:07:42 AM 40.6544 -105.6850 146° Southeast 212 244 19,200 -700 Descending Denver Center
Tue 11:08:42 AM 40.5936 -105.6311 150° Southeast 233 268 18,400 -800 Descending Denver Center
Tue 11:09:42 AM 40.5306 -105.5828 148° Southeast 248 285 17,600 -650 Descending Denver Center
Tue 11:10:42 AM 40.4656 -105.5289 148° Southeast 259 298 17,100 -400 Descending Denver Center
Tue 11:11:42 AM 40.4025 -105.4781 146° Southeast 267 307 16,800 -450 Descending Denver Center
Tue 11:12:42 AM 40.3417 -105.4244 137° Southeast 267 307 16,200 -550 Descending Denver Center
Tue 11:13:42 AM 40.2889 -105.3600 136° Southeast 267 307 15,700 -650 Descending Denver Center
Tue 11:14:42 AM 40.2444 -105.3036 146° Southeast 238 274 14,900 -1,000 Descending Denver Center
Tue 11:15:42 AM 40.1961 -105.2608 154° Southeast 218 251 13,700 -1,250 Descending Denver Center
Tue 11:16:42 AM 40.1458 -105.2292 151° Southeast 204 235 12,400 -1,200 Descending Denver Center
Tue 11:17:42 AM 40.0975 -105.1947 153° Southeast 204 235 11,300 -1,150 Descending Denver Center
Tue 11:18:42 AM 40.0428 -105.1578 150° Southeast 214 246 10,100 -1,250 Descending Denver Center
Tue 11:19:42 AM 39.9944 -105.1208 149° Southeast 214 246 8,800 -1,150 Descending Denver Center
Tue 11:20:42 AM 39.9439 -105.0811 149° Southeast 214 246 7,800 -1,000 Descending Denver Center

Login

Don't have an account? Register now (free) for customized features, flight alerts, and more!